Time;durP1;ratioP1;P1;durP2;ratioP2;P2;SDS_P1;SDS_P2;PMS_P1;PMS_P2;Temp;Humidity;BMP_temperature;BMP_pressure;BME280_temperature;BME280_humidity;BME280_pressure;Samples;Min_cycle;Max_cycle;Signal;HPM_P1;HPM_P2
2023/12/05 00:02:08;;;;;;;1.35;0.38;;;;;;;;;;5111170;28;20048;-72
2023/12/05 00:04:36;;;;;;;1.88;0.55;;;;;;;;;;5110446;28;20045;-72
2023/12/05 00:07:03;;;;;;;1.95;0.73;;;;;;;;;;5110815;28;20047;-72
2023/12/05 00:09:32;;;;;;;3.85;0.98;;;;;;;;;;5110320;28;20050;-72
2023/12/05 00:11:59;;;;;;;3.83;0.93;;;;;;;;;;5110606;28;20044;-73
2023/12/05 00:14:26;;;;;;;4.72;1.10;;;;;;;;;;5110259;28;20047;-72
2023/12/05 00:16:52;;;;;;;4.15;0.75;;;;;;;;;;5110534;28;20051;-72
2023/12/05 00:19:19;;;;;;;5.43;0.88;;;;;;;;;;5110474;28;20101;-73
2023/12/05 00:21:46;;;;;;;4.22;0.70;;;;;;;;;;5110213;28;20112;-72
2023/12/05 00:24:13;;;;;;;3.63;0.90;;;;;;;;;;5109925;28;20082;-72
2023/12/05 00:26:40;;;;;;;2.88;0.80;;;;;;;;;;5110180;28;20048;-72
2023/12/05 00:29:06;;;;;;;3.15;0.80;;;;;;;;;;5109930;28;20096;-72
2023/12/05 00:31:33;;;;;;;2.47;0.63;;;;;;;;;;5110417;28;20050;-72
2023/12/05 00:34:00;;;;;;;5.25;0.80;;;;;;;;;;5110043;28;20039;-72
2023/12/05 00:36:27;;;;;;;2.75;0.75;;;;;;;;;;5109814;28;20157;-72
2023/12/05 00:38:53;;;;;;;2.95;0.68;;;;;;;;;;5109844;28;20392;-72
2023/12/05 00:41:20;;;;;;;7.32;0.75;;;;;;;;;;5110272;28;20043;-72
2023/12/05 00:43:47;;;;;;;2.30;0.80;;;;;;;;;;5109848;28;20241;-72
2023/12/05 00:46:13;;;;;;;4.63;1.00;;;;;;;;;;5109622;28;20558;-72
2023/12/05 00:48:40;;;;;;;3.80;0.70;;;;;;;;;;5109517;28;20040;-73
2023/12/05 00:51:07;;;;;;;5.78;0.85;;;;;;;;;;5109761;28;20043;-72
2023/12/05 00:53:34;;;;;;;2.38;0.70;;;;;;;;;;5109364;28;20150;-72
2023/12/05 00:56:00;;;;;;;4.82;1.33;;;;;;;;;;5109502;28;20047;-72
2023/12/05 00:58:27;;;;;;;4.82;0.73;;;;;;;;;;5109614;28;20059;-72
2023/12/05 01:00:54;;;;;;;4.18;1.15;;;;;;;;;;5109573;28;20444;-72
2023/12/05 01:03:21;;;;;;;2.42;0.70;;;;;;;;;;5109546;28;20093;-72
2023/12/05 01:05:48;;;;;;;4.05;0.80;;;;;;;;;;5109470;28;20043;-72
2023/12/05 01:08:15;;;;;;;4.10;0.68;;;;;;;;;;5109163;28;20058;-73
2023/12/05 01:10:41;;;;;;;4.95;0.80;;;;;;;;;;5109036;28;20044;-72
2023/12/05 01:13:08;;;;;;;4.68;0.95;;;;;;;;;;5109369;28;20052;-72
2023/12/05 01:15:35;;;;;;;3.55;0.70;;;;;;;;;;5109315;28;20047;-72
2023/12/05 01:18:02;;;;;;;3.28;0.75;;;;;;;;;;5109446;28;20079;-72
2023/12/05 01:20:30;;;;;;;3.70;0.85;;;;;;;;;;5109396;28;20046;-72
2023/12/05 01:22:57;;;;;;;3.00;0.77;;;;;;;;;;5108685;28;20134;-73
2023/12/05 01:25:23;;;;;;;3.40;0.75;;;;;;;;;;5108419;28;20070;-73
2023/12/05 01:27:51;;;;;;;5.85;1.42;;;;;;;;;;5109284;28;20047;-72
2023/12/05 01:30:19;;;;;;;1.52;0.65;;;;;;;;;;5108878;28;20594;-72
2023/12/05 01:32:45;;;;;;;3.13;0.80;;;;;;;;;;5109362;28;20039;-72
2023/12/05 01:35:12;;;;;;;6.68;0.68;;;;;;;;;;5109051;28;20044;-72
2023/12/05 01:37:39;;;;;;;4.50;0.82;;;;;;;;;;5108831;28;20061;-72
2023/12/05 01:40:09;;;;;;;3.78;0.55;;;;;;;;;;5108556;28;20047;-72
2023/12/05 01:42:36;;;;;;;1.30;0.40;;;;;;;;;;5108822;28;20507;-73
2023/12/05 01:45:08;;;;;;;5.07;1.05;;;;;;;;;;5108861;28;20040;-72
2023/12/05 01:47:39;;;;;;;4.97;0.90;;;;;;;;;;5108804;28;20749;-72
2023/12/05 01:50:11;;;;;;;5.00;0.90;;;;;;;;;;5108790;28;20044;-71
2023/12/05 01:52:44;;;;;;;2.00;0.70;;;;;;;;;;5090807;28;20048;-72
2023/12/05 01:55:10;;;;;;;4.38;0.80;;;;;;;;;;5108321;28;20062;-72
2023/12/05 01:57:37;;;;;;;2.67;0.77;;;;;;;;;;5108349;28;20060;-72
2023/12/05 02:00:06;;;;;;;4.57;0.98;;;;;;;;;;5108764;28;20050;-73
2023/12/05 02:02:32;;;;;;;3.33;0.65;;;;;;;;;;5108756;28;20044;-73
2023/12/05 02:04:59;;;;;;;6.22;0.82;;;;;;;;;;5108982;28;20059;-71
2023/12/05 02:07:26;;;;;;;3.40;0.75;;;;;;;;;;5108777;28;20058;-72
2023/12/05 02:09:53;;;;;;;2.90;0.70;;;;;;;;;;5089975;28;20047;-71
2023/12/05 02:12:20;;;;;;;5.68;0.80;;;;;;;;;;5108905;28;20464;-72
2023/12/05 02:14:47;;;;;;;2.78;0.85;;;;;;;;;;5108395;28;20426;-72
2023/12/05 02:17:28;;;;;;;4.57;0.90;;;;;;;;;;5108497;28;20048;-72
2023/12/05 02:20:31;;;;;;;2.47;0.60;;;;;;;;;;5092186;28;20727;-72
2023/12/05 02:23:00;;;;;;;4.30;0.68;;;;;;;;;;5112342;28;20557;-72
2023/12/05 02:26:06;;;;;;;2.90;0.60;;;;;;;;;;5112314;28;20131;-73
2023/12/05 02:28:34;;;;;;;5.57;0.75;;;;;;;;;;5112602;28;20055;-72
2023/12/05 02:31:01;;;;;;;2.83;0.80;;;;;;;;;;5112200;28;20414;-72
2023/12/05 02:33:27;;;;;;;2.28;0.60;;;;;;;;;;5112352;28;20048;-72
2023/12/05 02:36:08;;;;;;;1.83;0.60;;;;;;;;;;5112099;28;20044;-71
2023/12/05 02:39:16;;;;;;;5.22;0.68;;;;;;;;;;5111844;28;20419;-72
2023/12/05 02:41:48;;;;;;;3.42;0.95;;;;;;;;;;5112683;28;20047;-72
2023/12/05 02:44:17;;;;;;;2.17;0.50;;;;;;;;;;5112536;28;20063;-72
2023/12/05 02:46:46;;;;;;;1.40;0.50;;;;;;;;;;5112065;28;20051;-72
2023/12/05 02:49:13;;;;;;;2.50;0.47;;;;;;;;;;5112197;28;20050;-72
2023/12/05 02:51:41;;;;;;;2.90;0.60;;;;;;;;;;5093791;28;20039;-72
2023/12/05 02:54:08;;;;;;;6.38;0.70;;;;;;;;;;5111864;28;20070;-72
2023/12/05 02:56:35;;;;;;;3.00;0.70;;;;;;;;;;5111653;28;20047;-72
2023/12/05 02:59:03;;;;;;;3.83;0.68;;;;;;;;;;5112394;28;20047;-72
2023/12/05 03:01:32;;;;;;;4.88;0.73;;;;;;;;;;5111950;28;20043;-73
2023/12/05 03:03:58;;;;;;;2.05;0.40;;;;;;;;;;5111815;28;20047;-71
2023/12/05 03:06:27;;;;;;;5.90;0.80;;;;;;;;;;5111893;28;20043;-72
2023/12/05 03:08:54;;;;;;;3.83;0.90;;;;;;;;;;5111494;28;20055;-72
2023/12/05 03:11:20;;;;;;;2.83;0.75;;;;;;;;;;5111541;28;20051;-72
2023/12/05 03:13:47;;;;;;;1.95;0.70;;;;;;;;;;5111863;28;20509;-73
2023/12/05 03:16:13;;;;;;;2.85;0.68;;;;;;;;;;5111262;28;20425;-73
2023/12/05 03:18:40;;;;;;;1.98;0.70;;;;;;;;;;5111891;28;20043;-73
2023/12/05 03:21:07;;;;;;;2.30;0.70;;;;;;;;;;5111243;28;20056;-73
2023/12/05 03:23:34;;;;;;;5.63;0.70;;;;;;;;;;5111396;28;20044;-73
2023/12/05 03:26:01;;;;;;;2.90;0.63;;;;;;;;;;5111003;28;20043;-72
2023/12/05 03:28:28;;;;;;;3.53;0.80;;;;;;;;;;5111303;28;20048;-72
2023/12/05 03:30:55;;;;;;;3.47;0.70;;;;;;;;;;5109906;28;20449;-72
2023/12/05 03:33:22;;;;;;;1.83;0.45;;;;;;;;;;5111436;28;20506;-72
2023/12/05 03:35:48;;;;;;;2.50;0.70;;;;;;;;;;5111097;28;20048;-72
2023/12/05 03:38:15;;;;;;;2.78;0.60;;;;;;;;;;5111144;28;20058;-73
2023/12/05 03:40:42;;;;;;;5.50;1.40;;;;;;;;;;5110690;28;20054;-71
2023/12/05 03:43:08;;;;;;;3.42;0.88;;;;;;;;;;5111109;28;20048;-73
2023/12/05 03:45:35;;;;;;;2.78;0.60;;;;;;;;;;5111143;28;20050;-72
2023/12/05 03:48:02;;;;;;;6.38;0.85;;;;;;;;;;5110983;28;20051;-72
2023/12/05 03:50:29;;;;;;;3.50;0.60;;;;;;;;;;5110684;28;20730;-72
2023/12/05 03:52:55;;;;;;;3.25;0.60;;;;;;;;;;5111341;28;20051;-73
2023/12/05 03:55:22;;;;;;;1.15;0.60;;;;;;;;;;5110748;28;20075;-72
2023/12/05 03:57:49;;;;;;;1.40;0.40;;;;;;;;;;5092535;28;20447;-72
2023/12/05 04:00:16;;;;;;;5.10;0.65;;;;;;;;;;5110820;28;20244;-72
2023/12/05 04:02:43;;;;;;;3.22;0.70;;;;;;;;;;5092753;28;20052;-72
2023/12/05 04:05:11;;;;;;;3.22;0.63;;;;;;;;;;5110811;28;20046;-72
2023/12/05 04:07:40;;;;;;;4.50;0.50;;;;;;;;;;5110476;28;20079;-72
2023/12/05 04:10:08;;;;;;;2.83;0.65;;;;;;;;;;5092068;28;20765;-72
2023/12/05 04:12:35;;;;;;;2.38;0.50;;;;;;;;;;5110857;28;20101;-72
2023/12/05 04:15:03;;;;;;;4.03;1.23;;;;;;;;;;5110460;28;20043;-72
2023/12/05 04:17:30;;;;;;;2.60;0.60;;;;;;;;;;5109988;28;20047;-72
2023/12/05 04:19:57;;;;;;;2.78;0.70;;;;;;;;;;5110619;28;20051;-73
2023/12/05 04:22:23;;;;;;;2.05;0.50;;;;;;;;;;5109919;28;20051;-72
2023/12/05 04:24:50;;;;;;;2.85;0.60;;;;;;;;;;5109735;28;20559;-72
2023/12/05 04:27:17;;;;;;;3.50;0.60;;;;;;;;;;5109861;28;20526;-71
2023/12/05 04:29:45;;;;;;;2.90;0.65;;;;;;;;;;5110182;28;20052;-72
2023/12/05 04:32:12;;;;;;;4.53;0.63;;;;;;;;;;5110064;28;20048;-72
2023/12/05 04:34:43;;;;;;;1.65;0.40;;;;;;;;;;5110204;28;20086;-72
2023/12/05 04:37:11;;;;;;;2.53;0.80;;;;;;;;;;5109048;28;20051;-72
2023/12/05 04:39:37;;;;;;;3.58;0.50;;;;;;;;;;5109243;28;20046;-71
2023/12/05 04:42:04;;;;;;;3.65;1.08;;;;;;;;;;5109046;28;20121;-72
2023/12/05 04:44:31;;;;;;;4.55;0.70;;;;;;;;;;5109354;28;20562;-72
2023/12/05 04:46:59;;;;;;;2.50;1.13;;;;;;;;;;5109471;28;20046;-72
2023/12/05 04:49:26;;;;;;;4.07;0.60;;;;;;;;;;5109507;28;20043;-72
2023/12/05 04:51:53;;;;;;;0.63;0.40;;;;;;;;;;5109185;28;20040;-72
2023/12/05 04:54:20;;;;;;;1.40;0.50;;;;;;;;;;5108854;28;20071;-72
2023/12/05 04:56:50;;;;;;;3.88;0.63;;;;;;;;;;5108569;28;20407;-72
2023/12/05 04:59:17;;;;;;;2.58;0.50;;;;;;;;;;5118821;27;20052;-72
2023/12/05 05:01:44;;;;;;;3.17;0.80;;;;;;;;;;5118695;27;20046;-72
2023/12/05 05:04:10;;;;;;;2.30;0.88;;;;;;;;;;5120584;27;20122;-72
2023/12/05 05:06:37;;;;;;;4.22;0.63;;;;;;;;;;5118485;27;20048;-71
2023/12/05 05:09:04;;;;;;;3.58;0.68;;;;;;;;;;5118450;27;20046;-72
2023/12/05 05:11:31;;;;;;;6.13;0.70;;;;;;;;;;5119648;27;20050;-72
2023/12/05 05:13:57;;;;;;;2.20;0.50;;;;;;;;;;5118676;27;20047;-72
2023/12/05 05:16:26;;;;;;;4.63;0.90;;;;;;;;;;5118293;27;20087;-72
2023/12/05 05:18:53;;;;;;;3.75;0.80;;;;;;;;;;5117989;27;20530;-72
2023/12/05 05:21:20;;;;;;;1.58;0.35;;;;;;;;;;5118814;27;20130;-72
2023/12/05 05:23:47;;;;;;;3.13;0.70;;;;;;;;;;5111279;27;20067;-72
2023/12/05 05:26:14;;;;;;;1.92;0.52;;;;;;;;;;5109294;28;20047;-72
2023/12/05 05:28:41;;;;;;;2.25;0.70;;;;;;;;;;5108823;28;20104;-72
2023/12/05 05:31:07;;;;;;;3.35;0.55;;;;;;;;;;5109056;28;20043;-72
2023/12/05 05:33:34;;;;;;;4.05;1.05;;;;;;;;;;5108942;28;20628;-72
2023/12/05 05:36:01;;;;;;;3.47;0.60;;;;;;;;;;5109088;28;20628;-71
2023/12/05 05:38:28;;;;;;;4.18;0.60;;;;;;;;;;5108204;28;20061;-71
2023/12/05 05:41:04;;;;;;;3.90;0.60;;;;;;;;;;5109199;28;20415;-72
2023/12/05 05:43:31;;;;;;;3.35;0.50;;;;;;;;;;5108787;28;20574;-71
2023/12/05 05:45:58;;;;;;;1.55;0.40;;;;;;;;;;5109235;28;20047;-72
2023/12/05 05:48:24;;;;;;;2.30;0.45;;;;;;;;;;5108459;28;20041;-71
2023/12/05 05:50:51;;;;;;;3.17;0.57;;;;;;;;;;5108970;28;20140;-72
2023/12/05 05:53:18;;;;;;;0.40;0.30;;;;;;;;;;5108424;28;20044;-72
2023/12/05 05:55:45;;;;;;;2.30;0.63;;;;;;;;;;5108278;28;20066;-72
2023/12/05 05:58:11;;;;;;;3.97;0.80;;;;;;;;;;5108760;28;20062;-71
2023/12/05 06:00:38;;;;;;;3.40;0.63;;;;;;;;;;5108752;28;20051;-72
2023/12/05 06:03:05;;;;;;;4.60;0.70;;;;;;;;;;5108586;28;20071;-72
2023/12/05 06:05:32;;;;;;;4.90;0.77;;;;;;;;;;5108481;28;20125;-71
2023/12/05 06:07:59;;;;;;;1.77;0.68;;;;;;;;;;5108405;28;20093;-72
2023/12/05 06:10:27;;;;;;;2.45;0.70;;;;;;;;;;5108622;28;20066;-71
2023/12/05 06:12:54;;;;;;;3.58;0.75;;;;;;;;;;5108771;28;20480;-71
2023/12/05 06:15:21;;;;;;;0.43;0.40;;;;;;;;;;5108693;28;20044;-71
2023/12/05 06:17:48;;;;;;;3.15;0.90;;;;;;;;;;5108067;28;20055;-72
2023/12/05 06:20:14;;;;;;;1.20;0.35;;;;;;;;;;5090946;28;20079;-72
2023/12/05 06:22:41;;;;;;;4.47;0.65;;;;;;;;;;5108297;28;20531;-72
2023/12/05 06:25:08;;;;;;;3.63;0.50;;;;;;;;;;5108263;28;20047;-72
2023/12/05 06:27:34;;;;;;;3.90;0.70;;;;;;;;;;5108240;28;20040;-72
2023/12/05 06:30:01;;;;;;;3.60;0.52;;;;;;;;;;5108918;28;20176;-71
2023/12/05 06:32:42;;;;;;;1.30;0.32;;;;;;;;;;5108434;28;20131;-72
2023/12/05 06:35:09;;;;;;;3.22;0.60;;;;;;;;;;5108396;28;20044;-72
2023/12/05 06:37:35;;;;;;;0.85;0.35;;;;;;;;;;5107928;28;20059;-71
2023/12/05 06:40:02;;;;;;;1.98;0.40;;;;;;;;;;5108014;28;20484;-72
2023/12/05 06:42:29;;;;;;;4.85;0.52;;;;;;;;;;5108018;28;20434;-72
2023/12/05 06:44:56;;;;;;;1.48;0.40;;;;;;;;;;5108401;28;20040;-72
2023/12/05 06:47:23;;;;;;;0.98;0.40;;;;;;;;;;5108249;28;20047;-72
2023/12/05 06:49:49;;;;;;;2.55;0.45;;;;;;;;;;5108189;28;20632;-71
2023/12/05 06:52:22;;;;;;;1.25;0.40;;;;;;;;;;5108442;28;20067;-72
2023/12/05 06:54:49;;;;;;;2.25;0.50;;;;;;;;;;5107801;28;20079;-71
2023/12/05 06:57:16;;;;;;;3.55;0.50;;;;;;;;;;5107962;28;20526;-72
2023/12/05 06:59:42;;;;;;;1.20;0.50;;;;;;;;;;5108228;28;20071;-72
2023/12/05 07:02:09;;;;;;;2.13;0.43;;;;;;;;;;5090076;28;20043;-72
2023/12/05 07:04:36;;;;;;;1.35;0.40;;;;;;;;;;5108298;28;20044;-72
2023/12/05 07:07:03;;;;;;;1.85;0.45;;;;;;;;;;5112014;28;20040;-71
2023/12/05 07:09:33;;;;;;;1.77;0.60;;;;;;;;;;5111491;28;20044;-72
2023/12/05 07:11:59;;;;;;;4.25;1.20;;;;;;;;;;5111907;28;20054;-72
2023/12/05 07:14:26;;;;;;;2.53;0.65;;;;;;;;;;5111446;28;20056;-73
2023/12/05 07:16:53;;;;;;;1.60;0.40;;;;;;;;;;5111851;28;20119;-72
2023/12/05 07:19:19;;;;;;;2.42;0.60;;;;;;;;;;5111480;28;20100;-72
2023/12/05 07:21:49;;;;;;;2.10;0.70;;;;;;;;;;5111535;28;20051;-71
2023/12/05 07:24:16;;;;;;;2.13;0.63;;;;;;;;;;5111141;28;20105;-71
2023/12/05 07:26:43;;;;;;;2.13;0.65;;;;;;;;;;5111416;28;20134;-71
2023/12/05 07:29:10;;;;;;;5.88;1.05;;;;;;;;;;5111130;28;20507;-72
2023/12/05 07:31:37;;;;;;;2.95;0.55;;;;;;;;;;5111321;28;20055;-72
2023/12/05 07:34:03;;;;;;;1.55;0.43;;;;;;;;;;5111266;28;20047;-72
2023/12/05 07:36:30;;;;;;;3.38;0.80;;;;;;;;;;5111306;28;20052;-71
2023/12/05 07:38:58;;;;;;;1.88;0.63;;;;;;;;;;5110724;28;20237;-72
2023/12/05 07:41:25;;;;;;;3.28;0.80;;;;;;;;;;5111466;28;20043;-72
2023/12/05 07:43:52;;;;;;;2.00;0.35;;;;;;;;;;5111243;28;20048;-72
2023/12/05 07:46:19;;;;;;;3.67;0.65;;;;;;;;;;5092957;28;20070;-73
2023/12/05 07:48:46;;;;;;;2.40;1.08;;;;;;;;;;5110345;28;20056;-72
2023/12/05 07:51:16;;;;;;;0.82;0.40;;;;;;;;;;5110885;28;20625;-72
2023/12/05 07:53:48;;;;;;;1.63;0.55;;;;;;;;;;5110409;28;20052;-72
2023/12/05 07:56:14;;;;;;;5.25;0.70;;;;;;;;;;5111177;28;20055;-72
2023/12/05 07:58:41;;;;;;;3.65;0.93;;;;;;;;;;5110488;28;20419;-72
2023/12/05 08:01:08;;;;;;;5.10;0.98;;;;;;;;;;5111148;28;20473;-71
2023/12/05 08:03:35;;;;;;;1.95;0.50;;;;;;;;;;5110650;28;20105;-72
2023/12/05 08:06:02;;;;;;;3.47;0.55;;;;;;;;;;5111081;28;20053;-71
2023/12/05 08:08:34;;;;;;;2.83;0.77;;;;;;;;;;5110023;28;20048;-71
2023/12/05 08:11:02;;;;;;;3.15;0.63;;;;;;;;;;5110523;28;20408;-71
2023/12/05 08:13:29;;;;;;;1.67;0.60;;;;;;;;;;5110492;28;20044;-72
2023/12/05 08:15:56;;;;;;;1.70;0.60;;;;;;;;;;5110723;28;20503;-72
2023/12/05 08:18:23;;;;;;;1.40;0.47;;;;;;;;;;5109392;28;20048;-72
2023/12/05 08:20:50;;;;;;;3.50;0.63;;;;;;;;;;5110425;28;20134;-73
2023/12/05 08:23:16;;;;;;;1.25;0.50;;;;;;;;;;5110080;28;20048;-72
2023/12/05 08:25:43;;;;;;;0.88;0.50;;;;;;;;;;5110024;28;20044;-71
2023/12/05 08:28:10;;;;;;;1.70;0.50;;;;;;;;;;5091793;28;20506;-72
2023/12/05 08:30:37;;;;;;;2.42;0.50;;;;;;;;;;5110293;28;20048;-71
2023/12/05 08:33:05;;;;;;;1.10;0.40;;;;;;;;;;5110136;28;20051;-72
2023/12/05 08:35:32;;;;;;;0.88;0.50;;;;;;;;;;5110330;28;20040;-72
2023/12/05 08:37:59;;;;;;;3.13;0.90;;;;;;;;;;5110418;28;20084;-72
2023/12/05 08:40:26;;;;;;;3.15;0.60;;;;;;;;;;5109546;28;20048;-72
2023/12/05 08:42:52;;;;;;;2.97;0.75;;;;;;;;;;5110036;28;20044;-72
2023/12/05 08:45:19;;;;;;;2.85;0.75;;;;;;;;;;5110057;28;20112;-72
2023/12/05 08:47:46;;;;;;;1.08;0.50;;;;;;;;;;5110081;28;20047;-72
2023/12/05 08:50:16;;;;;;;4.97;0.80;;;;;;;;;;5109654;28;20426;-71
2023/12/05 08:52:44;;;;;;;3.55;0.70;;;;;;;;;;5110027;28;20050;-72
2023/12/05 08:55:12;;;;;;;2.65;0.70;;;;;;;;;;5091345;28;20044;-72
2023/12/05 08:57:38;;;;;;;1.08;0.40;;;;;;;;;;5109819;28;20050;-72
2023/12/05 09:00:05;;;;;;;3.33;0.65;;;;;;;;;;5109300;28;20054;-72
2023/12/05 09:02:32;;;;;;;1.90;0.68;;;;;;;;;;5109523;28;20051;-72
2023/12/05 09:05:03;;;;;;;4.25;0.77;;;;;;;;;;5109743;28;20051;-72
2023/12/05 09:07:31;;;;;;;2.40;0.68;;;;;;;;;;5109889;28;20050;-73
2023/12/05 09:09:58;;;;;;;2.13;0.70;;;;;;;;;;5109290;28;20047;-72
2023/12/05 09:12:25;;;;;;;2.90;0.90;;;;;;;;;;5109704;28;20255;-72
2023/12/05 09:14:51;;;;;;;6.45;0.93;;;;;;;;;;5109416;28;20050;-73
2023/12/05 09:17:18;;;;;;;3.38;0.80;;;;;;;;;;5109403;28;20620;-73
2023/12/05 09:19:45;;;;;;;1.95;0.60;;;;;;;;;;5108665;28;20515;-73
2023/12/05 09:22:14;;;;;;;3.47;0.93;;;;;;;;;;5109067;28;20578;-72
2023/12/05 09:24:41;;;;;;;2.75;0.60;;;;;;;;;;5108607;28;20388;-73
2023/12/05 09:27:08;;;;;;;1.17;0.43;;;;;;;;;;5109572;28;20134;-72
2023/12/05 09:29:34;;;;;;;3.83;0.60;;;;;;;;;;5108206;28;20040;-73
2023/12/05 09:32:16;;;;;;;2.65;0.90;;;;;;;;;;5109244;28;20136;-72
2023/12/05 09:34:44;;;;;;;2.60;0.60;;;;;;;;;;5108998;28;20149;-72
2023/12/05 09:37:11;;;;;;;3.42;0.70;;;;;;;;;;5109088;28;20043;-72
2023/12/05 09:39:39;;;;;;;2.40;0.55;;;;;;;;;;5108247;28;20051;-72
2023/12/05 09:42:10;;;;;;;5.78;0.80;;;;;;;;;;5108852;28;20134;-72
2023/12/05 09:44:45;;;;;;;3.00;0.55;;;;;;;;;;5109245;28;20048;-72
2023/12/05 09:47:17;;;;;;;2.75;0.55;;;;;;;;;;5108889;28;20508;-72
2023/12/05 09:49:45;;;;;;;2.45;0.50;;;;;;;;;;5108627;28;20052;-72
2023/12/05 09:52:14;;;;;;;3.42;0.43;;;;;;;;;;5109369;28;20135;-73
2023/12/05 09:54:44;;;;;;;2.22;0.60;;;;;;;;;;5108246;28;20044;-72
2023/12/05 09:57:12;;;;;;;2.50;0.52;;;;;;;;;;5108914;28;20097;-72
2023/12/05 09:59:40;;;;;;;3.25;0.60;;;;;;;;;;5108483;28;20052;-72
2023/12/05 10:02:07;;;;;;;1.67;0.50;;;;;;;;;;5090884;28;20040;-71
2023/12/05 10:04:43;;;;;;;2.67;0.40;;;;;;;;;;5090741;28;20079;-72
2023/12/05 10:07:11;;;;;;;2.00;0.52;;;;;;;;;;5108973;28;20484;-72
2023/12/05 10:09:42;;;;;;;3.28;0.60;;;;;;;;;;5107778;28;20061;-73
2023/12/05 10:12:10;;;;;;;3.90;0.60;;;;;;;;;;5108951;28;20134;-72
2023/12/05 10:14:38;;;;;;;1.85;0.50;;;;;;;;;;5108423;28;20067;-71
2023/12/05 10:17:08;;;;;;;2.55;0.88;;;;;;;;;;5108630;28;20055;-72
2023/12/05 10:19:35;;;;;;;5.32;0.98;;;;;;;;;;5108214;28;20406;-72
2023/12/05 10:22:05;;;;;;;3.47;0.75;;;;;;;;;;5108537;28;20094;-72
2023/12/05 10:24:42;;;;;;;1.45;0.60;;;;;;;;;;5108222;28;20044;-71
2023/12/05 10:27:09;;;;;;;2.53;0.63;;;;;;;;;;5113714;28;20047;-72
2023/12/05 10:29:38;;;;;;;1.77;0.45;;;;;;;;;;5117699;28;20520;-72
2023/12/05 10:32:10;;;;;;;2.60;0.50;;;;;;;;;;5116679;28;20058;-72
2023/12/05 10:35:03;;;;;;;2.45;0.88;;;;;;;;;;5117831;28;20662;-72
2023/12/05 10:37:30;;;;;;;1.00;0.50;;;;;;;;;;5112173;28;20054;-72
2023/12/05 10:39:58;;;;;;;2.20;0.40;;;;;;;;;;5117833;27;20053;-72
2023/12/05 10:42:26;;;;;;;2.83;0.45;;;;;;;;;;5120921;27;20044;-72
2023/12/05 10:44:53;;;;;;;1.45;0.52;;;;;;;;;;5122357;27;20047;-72
2023/12/05 10:47:20;;;;;;;1.70;0.52;;;;;;;;;;5122465;27;20085;-72
2023/12/05 10:49:50;;;;;;;2.78;0.63;;;;;;;;;;5120777;27;20051;-71
2023/12/05 10:52:17;;;;;;;3.30;0.40;;;;;;;;;;5121901;27;20043;-72
2023/12/05 10:54:44;;;;;;;2.95;0.50;;;;;;;;;;5122268;27;20465;-71
2023/12/05 10:57:11;;;;;;;3.40;0.70;;;;;;;;;;5121083;27;20039;-72
2023/12/05 10:59:42;;;;;;;2.28;0.60;;;;;;;;;;5121489;27;20063;-71
2023/12/05 11:02:13;;;;;;;;;;;;;;;;;;5126872;27;20442;-72
2023/12/05 11:04:41;;;;;;;2.63;0.57;;;;;;;;;;5132411;27;19923;-70
2023/12/05 11:07:10;;;;;;;3.70;0.57;;;;;;;;;;5132217;27;20043;-73
2023/12/05 11:09:41;;;;;;;2.67;0.70;;;;;;;;;;5113682;27;20638;-74
2023/12/05 11:12:09;;;;;;;1.60;0.63;;;;;;;;;;5132526;27;20070;-73
2023/12/05 11:14:44;;;;;;;2.85;0.50;;;;;;;;;;5132287;27;20039;-74
2023/12/05 11:17:17;;;;;;;2.13;0.43;;;;;;;;;;5132120;27;20550;-73
2023/12/05 11:20:02;;;;;;;2.75;0.38;;;;;;;;;;5131868;27;20624;-73
2023/12/05 11:23:00;;;;;;;3.30;0.50;;;;;;;;;;5131857;27;20065;-72
2023/12/05 11:25:47;;;;;;;2.90;0.68;;;;;;;;;;5131616;27;20042;-74
2023/12/05 11:28:41;;;;;;;4.68;0.65;;;;;;;;;;5131230;27;20517;-71
2023/12/05 11:31:14;;;;;;;2.45;0.45;;;;;;;;;;5121898;27;20044;-72
2023/12/05 11:34:19;;;;;;;2.50;0.52;;;;;;;;;;5121132;27;20100;-71
2023/12/05 11:37:25;;;;;;;1.55;0.45;;;;;;;;;;5103687;27;20514;-72
2023/12/05 11:39:54;;;;;;;1.63;0.40;;;;;;;;;;5075840;27;20062;-73
2023/12/05 11:42:21;;;;;;;2.42;0.47;;;;;;;;;;5120800;27;20048;-73
2023/12/05 11:44:48;;;;;;;1.70;0.47;;;;;;;;;;5120255;27;20075;-71
2023/12/05 11:47:27;;;;;;;1.77;0.45;;;;;;;;;;5121934;27;20039;-71
2023/12/05 11:49:59;;;;;;;1.25;0.55;;;;;;;;;;5121982;27;20039;-71
2023/12/05 11:52:28;;;;;;;0.85;0.50;;;;;;;;;;5119786;27;20647;-72
2023/12/05 11:54:54;;;;;;;1.42;0.45;;;;;;;;;;5119584;27;20044;-72
2023/12/05 11:57:24;;;;;;;1.85;0.43;;;;;;;;;;5120511;27;20043;-72
2023/12/05 11:59:52;;;;;;;1.52;0.50;;;;;;;;;;5124720;27;20089;-73
2023/12/05 12:02:39;;;;;;;1.88;0.43;;;;;;;;;;5131515;27;20043;-72
2023/12/05 12:05:10;;;;;;;1.45;0.40;;;;;;;;;;5131699;27;20107;-72
2023/12/05 12:07:52;;;;;;;2.58;0.63;;;;;;;;;;5113560;27;20092;-71
2023/12/05 12:10:20;;;;;;;2.93;0.50;;;;;;;;;;5130943;27;20128;-72
2023/12/05 12:12:47;;;;;;;7.85;2.97;;;;;;;;;;5131250;27;20088;-72
2023/12/05 12:15:19;;;;;;;3.03;1.00;;;;;;;;;;5130901;27;20043;-71
2023/12/05 12:17:45;;;;;;;1.38;0.30;;;;;;;;;;5130936;27;20046;-73
2023/12/05 12:20:17;;;;;;;1.83;0.40;;;;;;;;;;5130696;27;20043;-72
2023/12/05 12:22:49;;;;;;;0.68;0.28;;;;;;;;;;5130550;27;20091;-72
2023/12/05 12:25:17;;;;;;;1.00;0.40;;;;;;;;;;5130580;27;20050;-72
2023/12/05 12:27:44;;;;;;;0.98;0.32;;;;;;;;;;5130615;27;20039;-72
2023/12/05 12:30:17;;;;;;;4.35;0.80;;;;;;;;;;5130528;27;20043;-72
2023/12/05 12:32:56;;;;;;;3.00;0.60;;;;;;;;;;5130116;27;20556;-73
2023/12/05 12:35:24;;;;;;;3.42;0.50;;;;;;;;;;5130992;27;20043;-73
2023/12/05 12:37:52;;;;;;;1.80;0.57;;;;;;;;;;5129254;27;20134;-72
2023/12/05 12:40:21;;;;;;;1.23;0.38;;;;;;;;;;5130421;27;20051;-72
2023/12/05 12:42:54;;;;;;;0.40;0.20;;;;;;;;;;5130672;27;20051;-73
2023/12/05 12:45:24;;;;;;;1.20;0.50;;;;;;;;;;5130785;27;20728;-72
2023/12/05 12:47:52;;;;;;;2.65;0.40;;;;;;;;;;5130072;27;20092;-72
2023/12/05 12:50:19;;;;;;;2.83;0.60;;;;;;;;;;5130266;27;20138;-72
2023/12/05 12:52:46;;;;;;;1.35;0.43;;;;;;;;;;5130062;27;20066;-73
2023/12/05 12:55:16;;;;;;;3.15;0.50;;;;;;;;;;5130400;27;20063;-72
2023/12/05 12:57:43;;;;;;;1.23;0.43;;;;;;;;;;5129975;27;20054;-72
2023/12/05 13:00:11;;;;;;;3.33;0.88;;;;;;;;;;5111881;27;20048;-73
2023/12/05 13:02:59;;;;;;;1.75;0.52;;;;;;;;;;5114769;27;20047;-72
2023/12/05 13:05:33;;;;;;;2.22;0.65;;;;;;;;;;5130287;27;20047;-72
2023/12/05 13:08:03;;;;;;;3.40;0.40;;;;;;;;;;5129724;27;20043;-72
2023/12/05 13:10:31;;;;;;;3.60;0.47;;;;;;;;;;5130070;27;20045;-72
2023/12/05 13:12:59;;;;;;;4.43;0.50;;;;;;;;;;5130321;27;20047;-72
2023/12/05 13:15:29;;;;;;;2.20;0.40;;;;;;;;;;5130343;27;20039;-72
2023/12/05 13:18:01;;;;;;;1.27;0.40;;;;;;;;;;5129686;27;20073;-72
2023/12/05 13:20:27;;;;;;;0.77;0.28;;;;;;;;;;5129836;27;20051;-72
2023/12/05 13:22:55;;;;;;;1.83;0.40;;;;;;;;;;5129452;27;20150;-72
2023/12/05 13:25:23;;;;;;;0.80;0.30;;;;;;;;;;5129009;27;20047;-72
2023/12/05 13:28:05;;;;;;;3.65;1.08;;;;;;;;;;5129481;27;20685;-72
2023/12/05 13:30:31;;;;;;;4.63;0.47;;;;;;;;;;5129799;27;20043;-73
2023/12/05 13:32:59;;;;;;;1.10;0.40;;;;;;;;;;5129625;27;20053;-73
2023/12/05 13:35:26;;;;;;;2.40;0.30;;;;;;;;;;5129733;27;20480;-72
2023/12/05 13:37:53;;;;;;;2.88;0.40;;;;;;;;;;5129584;27;20039;-72
2023/12/05 13:40:20;;;;;;;3.38;0.57;;;;;;;;;;5129111;27;20102;-73
2023/12/05 13:42:47;;;;;;;0.73;0.22;;;;;;;;;;5129041;27;20047;-73
2023/12/05 13:45:13;;;;;;;1.83;0.50;;;;;;;;;;5129506;27;20627;-73
2023/12/05 13:47:44;;;;;;;3.20;0.25;;;;;;;;;;5129299;27;20043;-73
2023/12/05 13:50:10;;;;;;;3.40;0.40;;;;;;;;;;5129512;27;20545;-73
2023/12/05 13:52:37;;;;;;;1.45;0.50;;;;;;;;;;5129273;27;20453;-73
2023/12/05 13:55:04;;;;;;;1.17;0.40;;;;;;;;;;5129141;28;20067;-73
2023/12/05 13:57:31;;;;;;;3.03;1.30;;;;;;;;;;5129079;28;20081;-72
2023/12/05 13:59:59;;;;;;;2.13;0.52;;;;;;;;;;5129330;28;20054;-73
2023/12/05 14:02:26;;;;;;;3.47;0.95;;;;;;;;;;5110511;28;20096;-73
2023/12/05 14:04:52;;;;;;;2.75;0.65;;;;;;;;;;5129365;28;20058;-74
2023/12/05 14:07:19;;;;;;;4.68;0.95;;;;;;;;;;5128961;28;20510;-72
2023/12/05 14:09:46;;;;;;;3.75;0.68;;;;;;;;;;5129079;28;20039;-72
2023/12/05 14:12:13;;;;;;;3.60;0.70;;;;;;;;;;5128974;28;20498;-73
2023/12/05 14:14:41;;;;;;;4.38;0.50;;;;;;;;;;5129420;27;20096;-72
2023/12/05 14:17:08;;;;;;;6.60;0.90;;;;;;;;;;5133170;27;20047;-72
2023/12/05 14:19:35;;;;;;;1.75;0.50;;;;;;;;;;5133171;27;20685;-72
2023/12/05 14:22:02;;;;;;;1.75;0.60;;;;;;;;;;5132931;27;20051;-73
2023/12/05 14:24:28;;;;;;;3.03;0.40;;;;;;;;;;5132983;27;20073;-72
2023/12/05 14:26:55;;;;;;;4.90;0.95;;;;;;;;;;5133142;27;20122;-73
2023/12/05 14:29:22;;;;;;;2.13;0.50;;;;;;;;;;5133492;27;20136;-72
2023/12/05 14:31:52;;;;;;;5.57;1.65;;;;;;;;;;5133171;27;20043;-72
2023/12/05 14:34:18;;;;;;;3.53;0.70;;;;;;;;;;5133205;27;20054;-72
2023/12/05 14:36:45;;;;;;;2.55;0.40;;;;;;;;;;5132864;27;20399;-72
2023/12/05 14:39:12;;;;;;;2.53;0.50;;;;;;;;;;5132372;27;20451;-72
2023/12/05 14:41:39;;;;;;;1.30;0.60;;;;;;;;;;5132588;27;20651;-72
2023/12/05 14:44:05;;;;;;;2.40;0.70;;;;;;;;;;5132702;27;20040;-71
2023/12/05 14:46:32;;;;;;;2.47;0.60;;;;;;;;;;5133244;27;20054;-72
2023/12/05 14:48:59;;;;;;;0.88;0.50;;;;;;;;;;5132992;27;20050;-72
2023/12/05 14:51:26;;;;;;;4.55;1.40;;;;;;;;;;5132389;27;20047;-72
2023/12/05 14:53:53;;;;;;;2.38;0.50;;;;;;;;;;5132105;27;20039;-71